createdAt,value
2019-04-29T00:00:44.953Z,14.21
2019-04-29T00:03:13.623Z,14.24
2019-04-29T00:05:42.107Z,14.46
2019-04-29T00:08:10.799Z,14.43
2019-04-29T00:10:39.391Z,14.25
2019-04-29T00:13:08.117Z,14.33
2019-04-29T00:15:56.456Z,14.23
2019-04-29T00:18:31.622Z,14.11
2019-04-29T00:21:00.321Z,14.09
2019-04-29T00:23:28.922Z,13.81
2019-04-29T00:25:57.434Z,13.88
2019-04-29T00:28:26.037Z,14.09
2019-04-29T00:30:54.774Z,13.80
2019-04-29T00:33:23.280Z,14.09
2019-04-29T00:35:51.784Z,14.34
2019-04-29T00:38:46.015Z,14.45
2019-04-29T00:41:37.089Z,14.23
2019-04-29T00:44:08.269Z,14.33
2019-04-29T00:46:36.738Z,14.34
2019-04-29T00:49:05.266Z,14.16
2019-04-29T00:51:33.950Z,14.03
2019-04-29T00:54:08.798Z,13.93
2019-04-29T00:56:37.391Z,14.29
2019-04-29T00:59:06.074Z,14.38
2019-04-29T01:01:34.929Z,13.91
2019-04-29T01:04:03.605Z,14.17
2019-04-29T01:06:32.095Z,14.29
2019-04-29T01:09:00.588Z,14.51
2019-04-29T01:11:29.431Z,14.30
2019-04-29T01:13:57.923Z,14.11
2019-04-29T01:16:26.497Z,13.91
2019-04-29T01:18:55.135Z,13.75
2019-04-29T01:21:23.648Z,13.75
2019-04-29T01:23:52.427Z,13.78
2019-04-29T01:26:39.072Z,13.88
2019-04-29T01:29:08.790Z,14.29
2019-04-29T01:31:37.500Z,14.63
2019-04-29T01:34:14.778Z,14.19
2019-04-29T01:36:44.694Z,13.76
2019-04-29T01:39:14.783Z,13.73
2019-04-29T01:42:03.031Z,13.77
2019-04-29T01:44:33.616Z,14.17
2019-04-29T01:47:02.294Z,14.23
2019-04-29T01:49:30.882Z,14.29
2019-04-29T01:51:59.384Z,14.68
2019-04-29T01:54:27.879Z,14.57
2019-04-29T01:56:56.386Z,14.42
2019-04-29T01:59:24.996Z,14.33
2019-04-29T02:01:53.695Z,14.59
2019-04-29T02:04:22.496Z,14.45
2019-04-29T02:06:50.967Z,14.00
2019-04-29T02:09:39.193Z,14.21
2019-04-29T02:12:07.801Z,13.75
2019-04-29T02:14:36.492Z,13.97
2019-04-29T02:17:04.993Z,14.10
2019-04-29T02:19:33.627Z,14.34
2019-04-29T02:22:26.013Z,14.40
2019-04-29T02:24:58.978Z,14.24
2019-04-29T02:27:27.565Z,13.61
2019-04-29T02:29:56.052Z,13.62
2019-04-29T02:32:24.595Z,13.94
2019-04-29T02:34:53.156Z,13.74
2019-04-29T02:37:28.196Z,13.85
2019-04-29T02:40:08.685Z,13.67
2019-04-29T02:42:43.834Z,13.67
2019-04-29T02:45:25.952Z,13.48
2019-04-29T02:47:54.554Z,13.57
2019-04-29T02:50:23.141Z,13.55
2019-04-29T02:52:51.629Z,13.64
2019-04-29T02:55:43.144Z,13.76
2019-04-29T02:58:21.041Z,14.15
2019-04-29T03:01:09.186Z,13.71
2019-04-29T03:03:57.320Z,14.11
2019-04-29T03:06:25.939Z,14.33
2019-04-29T03:08:54.509Z,14.23
2019-04-29T03:11:22.995Z,14.01
2019-04-29T03:13:51.584Z,13.75
2019-04-29T03:16:20.258Z,13.90
2019-04-29T03:18:53.841Z,14.06
2019-04-29T03:21:39.563Z,14.13
2019-04-29T03:24:08.065Z,13.99
2019-04-29T03:26:36.633Z,14.13
2019-04-29T03:29:07.746Z,14.64
2019-04-29T03:31:39.508Z,14.04
2019-04-29T03:34:06.944Z,14.32
2019-04-29T03:36:35.526Z,14.66
2019-04-29T03:39:05.080Z,14.35
2019-04-29T03:41:33.569Z,14.34
2019-04-29T03:44:02.056Z,14.17
2019-04-29T03:46:30.638Z,13.99
2019-04-29T03:48:59.216Z,13.72
2019-04-29T03:51:27.702Z,13.91
2019-04-29T03:53:56.221Z,13.67
2019-04-29T03:56:24.759Z,13.85
2019-04-29T03:58:53.265Z,13.94
2019-04-29T04:01:27.802Z,13.74
2019-04-29T04:04:10.944Z,14.20
2019-04-29T04:06:46.889Z,13.67
2019-04-29T04:09:20.554Z,14.27
2019-04-29T04:11:49.078Z,13.87
2019-04-29T04:14:17.689Z,13.54
2019-04-29T04:17:21.051Z,13.78
2019-04-29T04:19:49.823Z,14.17
2019-04-29T04:22:18.292Z,14.63
2019-04-29T04:24:46.765Z,14.18
2019-04-29T04:27:15.344Z,14.21
2019-04-29T04:29:43.906Z,13.97
2019-04-29T04:32:12.419Z,14.02
2019-04-29T04:34:40.922Z,14.29
2019-04-29T04:37:09.512Z,14.38
2019-04-29T04:39:39.929Z,14.34
2019-04-29T04:42:08.562Z,14.17
2019-04-29T04:44:55.149Z,14.46
2019-04-29T04:47:23.885Z,14.22
2019-04-29T04:49:52.453Z,14.05
2019-04-29T04:52:20.969Z,14.25
2019-04-29T04:54:51.914Z,14.48
2019-04-29T04:57:20.458Z,14.08
2019-04-29T04:59:48.964Z,14.01
2019-04-29T05:02:17.570Z,14.06
2019-04-29T05:04:46.154Z,14.11
2019-04-29T05:07:14.725Z,14.00
2019-04-29T05:09:43.280Z,13.96
2019-04-29T05:12:14.092Z,14.21
2019-04-29T05:14:42.339Z,14.17
2019-04-29T05:17:10.955Z,14.10
2019-04-29T05:19:39.636Z,14.18
2019-04-29T05:22:08.120Z,14.14
2019-04-29T05:24:36.770Z,14.41
2019-04-29T05:27:05.336Z,14.46
2019-04-29T05:29:33.916Z,14.39
2019-04-29T05:32:02.461Z,14.41
2019-04-29T05:34:32.987Z,14.84
2019-04-29T05:37:18.347Z,14.81
2019-04-29T05:39:46.925Z,14.95
2019-04-29T05:42:17.094Z,14.75
2019-04-29T05:45:02.199Z,14.79
2019-04-29T05:47:38.978Z,14.84
2019-04-29T05:50:26.021Z,15.07
2019-04-29T05:52:59.768Z,14.99
2019-04-29T05:55:28.316Z,15.06
2019-04-29T05:58:10.388Z,15.19
2019-04-29T06:00:40.819Z,15.46
2019-04-29T06:03:09.417Z,15.18
2019-04-29T06:05:38.136Z,15.12
2019-04-29T06:08:06.765Z,15.20
2019-04-29T06:10:35.296Z,15.15
2019-04-29T06:13:03.882Z,15.25
2019-04-29T06:15:32.263Z,15.40
2019-04-29T06:18:00.964Z,15.44
2019-04-29T06:20:29.698Z,15.38
2019-04-29T06:22:58.312Z,15.60
2019-04-29T06:25:26.928Z,15.53
2019-04-29T06:27:55.679Z,15.45
2019-04-29T06:30:24.384Z,15.58
2019-04-29T06:32:52.982Z,15.52
2019-04-29T06:35:21.624Z,15.79
2019-04-29T06:37:50.210Z,15.63
2019-04-29T06:40:18.806Z,15.60
2019-04-29T06:42:49.500Z,15.71
2019-04-29T06:45:17.944Z,15.78
2019-04-29T06:47:46.578Z,15.93
2019-04-29T06:50:15.316Z,16.22
2019-04-29T06:52:43.881Z,16.56
2019-04-29T06:55:12.899Z,16.60
2019-04-29T06:57:41.425Z,16.82
2019-04-29T07:00:10.649Z,17.08
2019-04-29T07:02:39.210Z,17.11
2019-04-29T07:05:07.782Z,17.17
2019-04-29T07:07:36.397Z,17.01
2019-04-29T07:10:05.326Z,17.22
2019-04-29T07:12:33.858Z,17.27
2019-04-29T07:15:02.630Z,17.34
2019-04-29T07:17:31.356Z,17.32
2019-04-29T07:20:01.957Z,17.44
2019-04-29T07:22:31.234Z,17.49
2019-04-29T07:25:00.072Z,17.53
2019-04-29T07:27:28.545Z,17.62
2019-04-29T07:29:57.053Z,17.62
2019-04-29T07:32:25.653Z,17.60
2019-04-29T07:34:54.232Z,17.66
2019-04-29T07:37:22.780Z,17.81
2019-04-29T07:39:51.363Z,17.95
2019-04-29T07:42:19.763Z,18.02
2019-04-29T07:45:06.584Z,17.95
2019-04-29T07:47:36.451Z,18.00
2019-04-29T07:50:06.208Z,18.21
2019-04-29T07:52:34.770Z,18.34
2019-04-29T07:55:03.556Z,18.35
2019-04-29T07:57:32.113Z,18.47
2019-04-29T08:00:00.796Z,18.52
2019-04-29T08:02:29.463Z,18.65
2019-04-29T08:04:58.058Z,18.79
2019-04-29T08:07:26.850Z,18.79
2019-04-29T08:09:55.931Z,18.93
2019-04-29T08:12:24.952Z,18.89
2019-04-29T08:14:58.519Z,18.91
2019-04-29T08:17:24.616Z,19.23
2019-04-29T08:19:53.202Z,19.59
2019-04-29T08:22:22.862Z,19.78
2019-04-29T08:24:52.266Z,19.66
2019-04-29T08:27:20.816Z,19.44
2019-04-29T08:29:49.395Z,19.35
2019-04-29T08:32:17.998Z,19.38
2019-04-29T08:34:46.582Z,19.51
2019-04-29T08:37:15.174Z,19.63
2019-04-29T08:39:43.772Z,19.83
2019-04-29T08:42:15.785Z,19.92
2019-04-29T08:45:03.928Z,19.94
2019-04-29T08:47:34.249Z,20.04
2019-04-29T08:50:03.081Z,20.08
2019-04-29T08:52:31.839Z,20.24
2019-04-29T08:55:00.441Z,20.32
2019-04-29T08:57:31.727Z,20.34
2019-04-29T08:59:59.421Z,20.34
2019-04-29T09:02:34.997Z,20.19
2019-04-29T09:04:58.723Z,20.34
2019-04-29T09:07:27.235Z,20.44
2019-04-29T09:10:01.403Z,20.52
2019-04-29T09:12:29.398Z,20.43
2019-04-29T09:14:57.055Z,20.45
2019-04-29T09:17:25.635Z,20.58
2019-04-29T09:19:54.311Z,20.81
2019-04-29T09:22:24.800Z,20.89
2019-04-29T09:25:30.996Z,20.94
2019-04-29T09:28:01.878Z,21.03
2019-04-29T09:30:30.601Z,21.08
2019-04-29T09:32:59.080Z,21.02
2019-04-29T09:35:28.880Z,20.91
2019-04-29T09:37:58.399Z,20.97
2019-04-29T09:40:30.513Z,21.20
2019-04-29T09:43:32.844Z,21.19
2019-04-29T09:46:07.768Z,21.22
2019-04-29T09:48:36.496Z,21.40
2019-04-29T09:51:16.692Z,21.61
2019-04-29T09:53:35.558Z,21.70
2019-04-29T09:56:04.257Z,21.57
2019-04-29T09:58:32.890Z,21.80
2019-04-29T10:01:23.852Z,21.83
2019-04-29T10:03:59.339Z,22.01
2019-04-29T10:06:31.038Z,21.98
2019-04-29T10:08:59.523Z,22.06
2019-04-29T10:11:28.162Z,21.95
2019-04-29T10:13:56.952Z,22.14
2019-04-29T10:16:54.248Z,22.20
2019-04-29T10:19:40.320Z,22.20
2019-04-29T10:22:08.827Z,22.13
2019-04-29T10:24:37.537Z,21.91
2019-04-29T10:27:07.323Z,22.17
2019-04-29T10:29:37.204Z,22.32
2019-04-29T10:32:08.587Z,22.48
2019-04-29T10:34:37.266Z,22.38
2019-04-29T10:37:06.684Z,22.47
2019-04-29T10:39:54.929Z,22.30
2019-04-29T10:42:35.016Z,22.40
2019-04-29T10:45:20.495Z,22.67
2019-04-29T10:48:11.450Z,22.68
2019-04-29T10:50:41.183Z,22.83
2019-04-29T10:53:10.886Z,22.90
2019-04-29T10:55:40.833Z,22.71
2019-04-29T10:58:09.517Z,22.71
2019-04-29T11:02:01.333Z,22.76
2019-04-29T11:04:31.600Z,22.75
2019-04-29T11:07:13.802Z,22.81
2019-04-29T11:09:52.748Z,22.71
2019-04-29T11:12:21.522Z,22.58
2019-04-29T11:14:50.101Z,22.55
2019-04-29T11:17:20.256Z,22.46
2019-04-29T11:19:48.748Z,22.63
2019-04-29T11:22:21.014Z,22.70
2019-04-29T11:25:18.189Z,22.82
2019-04-29T11:27:50.382Z,22.84
2019-04-29T11:30:22.323Z,22.91
2019-04-29T11:33:00.046Z,22.87
2019-04-29T11:35:35.721Z,22.75
2019-04-29T11:38:08.275Z,22.78
2019-04-29T11:40:43.738Z,22.79
2019-04-29T11:43:10.957Z,22.73
2019-04-29T11:45:40.490Z,22.80
2019-04-29T11:48:09.462Z,22.82
2019-04-29T11:50:50.079Z,22.88
2019-04-29T11:53:18.989Z,22.90
2019-04-29T11:55:47.630Z,22.88
2019-04-29T11:58:45.059Z,22.90
2019-04-29T12:01:39.213Z,22.95
2019-04-29T12:04:07.446Z,23.01
2019-04-29T12:06:36.461Z,22.87
2019-04-29T12:09:07.098Z,22.99
2019-04-29T12:11:37.255Z,22.92
2019-04-29T12:14:44.164Z,22.92
2019-04-29T12:17:31.133Z,23.06
2019-04-29T12:20:07.686Z,22.91
2019-04-29T12:22:47.738Z,22.86
2019-04-29T12:25:07.466Z,22.81
2019-04-29T12:27:36.184Z,22.88
2019-04-29T12:30:06.943Z,23.04
2019-04-29T12:32:52.629Z,22.89
2019-04-29T12:35:36.096Z,22.98
2019-04-29T12:38:39.992Z,23.03
2019-04-29T12:41:32.198Z,23.01
2019-04-29T12:44:05.002Z,23.03
2019-04-29T12:46:42.608Z,22.96
2019-04-29T12:49:13.586Z,22.99
2019-04-29T12:51:41.993Z,23.06
2019-04-29T12:54:10.816Z,23.07
2019-04-29T12:56:43.232Z,23.04
2019-04-29T12:59:11.068Z,23.09
2019-04-29T13:02:02.334Z,22.93
2019-04-29T13:04:45.139Z,22.85
2019-04-29T13:07:20.936Z,23.00
2019-04-29T13:09:50.725Z,23.07
2019-04-29T13:12:20.168Z,23.01
2019-04-29T13:15:07.857Z,23.11
2019-04-29T13:17:44.605Z,23.13
2019-04-29T13:20:13.591Z,22.98
2019-04-29T13:22:42.400Z,23.09
2019-04-29T13:25:11.301Z,23.11
2019-04-29T13:27:40.098Z,23.07
2019-04-29T13:30:15.180Z,23.10
2019-04-29T13:32:41.834Z,23.12
2019-04-29T13:35:12.709Z,23.01
2019-04-29T13:37:41.396Z,23.14
2019-04-29T13:40:10.708Z,23.14
2019-04-29T13:42:39.379Z,23.22
2019-04-29T13:45:13.484Z,23.13
2019-04-29T13:48:09.982Z,23.06
2019-04-29T13:50:51.161Z,23.12
2019-04-29T13:53:19.835Z,23.24
2019-04-29T13:55:50.025Z,23.27
2019-04-29T13:58:22.227Z,23.08
2019-04-29T14:01:22.156Z,23.13
2019-04-29T14:04:24.260Z,23.04
2019-04-29T14:06:56.662Z,23.08
2019-04-29T14:09:19.227Z,23.02
2019-04-29T14:12:00.965Z,23.02
2019-04-29T14:14:22.813Z,23.11
2019-04-29T14:16:49.358Z,23.11
2019-04-29T14:19:20.502Z,23.07
2019-04-29T14:21:48.586Z,23.08
2019-04-29T14:24:17.206Z,23.02
2019-04-29T14:26:47.866Z,22.99
2019-04-29T14:29:16.534Z,23.03
2019-04-29T14:31:48.052Z,23.00
2019-04-29T14:34:30.656Z,23.03
2019-04-29T14:37:18.340Z,23.03
2019-04-29T14:39:36.678Z,22.93
2019-04-29T14:42:03.905Z,22.97
2019-04-29T14:44:41.233Z,22.88
2019-04-29T14:47:28.066Z,22.91
2019-04-29T14:49:58.964Z,22.94
2019-04-29T14:52:27.702Z,22.93
2019-04-29T14:54:56.262Z,22.82
2019-04-29T14:57:24.969Z,22.92
2019-04-29T14:59:53.946Z,22.91
2019-04-29T15:02:24.828Z,22.96
2019-04-29T15:04:54.067Z,22.95
2019-04-29T15:07:22.904Z,22.91
2019-04-29T15:09:55.822Z,22.89
2019-04-29T15:12:51.886Z,22.82
2019-04-29T15:15:41.928Z,22.79
2019-04-29T15:18:48.578Z,22.83
2019-04-29T15:21:31.471Z,22.81
2019-04-29T15:23:48.716Z,22.70
2019-04-29T15:26:20.294Z,22.73
2019-04-29T15:28:51.093Z,22.82
2019-04-29T15:31:20.845Z,22.79
2019-04-29T15:33:50.266Z,22.76
2019-04-29T15:36:19.174Z,22.59
2019-04-29T15:39:08.276Z,22.60
2019-04-29T15:41:18.921Z,22.61
2019-04-29T15:43:48.382Z,22.54
2019-04-29T15:46:17.411Z,22.46
2019-04-29T15:48:46.314Z,22.47
2019-04-29T15:51:15.051Z,22.49
2019-04-29T15:53:44.046Z,22.34
2019-04-29T15:56:27.668Z,22.26
2019-04-29T15:58:43.384Z,22.28
2019-04-29T16:01:17.410Z,22.21
2019-04-29T16:03:43.107Z,22.15
2019-04-29T16:06:44.084Z,22.15
2019-04-29T16:09:23.570Z,22.12
2019-04-29T16:12:15.414Z,22.10
2019-04-29T16:14:48.896Z,21.95
2019-04-29T16:17:14.406Z,21.99
2019-04-29T16:19:43.520Z,21.85
2019-04-29T16:22:12.886Z,21.83
2019-04-29T16:24:42.642Z,21.75
2019-04-29T16:27:11.341Z,21.74
2019-04-29T16:29:39.924Z,21.71
2019-04-29T16:32:11.300Z,21.70
2019-04-29T16:34:45.136Z,21.79
2019-04-29T16:37:10.402Z,21.73
2019-04-29T16:39:39.131Z,21.71
2019-04-29T16:42:28.746Z,21.59
2019-04-29T16:44:57.565Z,21.52
2019-04-29T16:47:26.373Z,21.46
2019-04-29T16:49:57.578Z,21.51
2019-04-29T16:52:26.073Z,21.55
2019-04-29T16:54:59.165Z,21.49
2019-04-29T16:57:25.285Z,21.48
2019-04-29T16:59:53.922Z,21.41
2019-04-29T17:02:23.227Z,21.31
2019-04-29T17:04:51.820Z,21.34
2019-04-29T17:07:20.685Z,21.16
2019-04-29T17:10:21.371Z,21.17
2019-04-29T17:12:50.869Z,21.23
2019-04-29T17:17:50.010Z,20.94
2019-04-29T17:20:18.906Z,20.96
2019-04-29T17:22:47.539Z,20.95
2019-04-29T17:25:17.859Z,20.85
2019-04-29T17:27:59.431Z,20.91
2019-04-29T17:30:53.991Z,20.90
2019-04-29T17:33:36.173Z,20.68
2019-04-29T17:35:14.559Z,21.08
2019-04-29T17:36:05.625Z,20.70
2019-04-29T17:38:34.430Z,20.61
2019-04-29T17:41:03.388Z,20.59
2019-04-29T17:44:00.789Z,20.62
2019-04-29T17:46:40.111Z,20.41
2019-04-29T17:49:17.633Z,20.32
2019-04-29T17:51:46.937Z,20.29
2019-04-29T17:54:20.820Z,20.18
2019-04-29T17:57:25.601Z,20.16
2019-04-29T18:00:00.562Z,20.17
2019-04-29T18:03:00.855Z,20.06
2019-04-29T18:05:52.223Z,20.01
2019-04-29T18:08:20.032Z,19.88
2019-04-29T18:10:52.220Z,19.92
2019-04-29T18:13:24.704Z,19.91
2019-04-29T18:16:00.956Z,19.95
2019-04-29T18:18:43.965Z,19.89
2019-04-29T18:21:28.869Z,19.65
2019-04-29T18:24:06.247Z,19.78
2019-04-29T18:26:39.490Z,19.66
2019-04-29T18:29:08.217Z,19.73
2019-04-29T18:31:36.790Z,19.76
2019-04-29T18:34:05.634Z,19.59
2019-04-29T18:36:35.173Z,19.51
2019-04-29T18:39:06.957Z,19.58
2019-04-29T18:41:35.528Z,19.58
2019-04-29T18:44:05.287Z,19.60
2019-04-29T18:46:35.222Z,19.68
2019-04-29T18:49:06.534Z,19.47
2019-04-29T18:51:34.994Z,19.35
2019-04-29T18:54:06.072Z,19.31
2019-04-29T18:56:36.435Z,19.53
2019-04-29T18:59:05.438Z,19.49
2019-04-29T19:01:34.930Z,19.31
2019-04-29T19:04:16.760Z,19.25
2019-04-29T19:06:42.535Z,19.57
2019-04-29T19:09:17.795Z,19.32
2019-04-29T19:11:42.197Z,19.34
2019-04-29T19:14:11.175Z,19.32
2019-04-29T19:16:39.889Z,19.29
2019-04-29T19:19:08.925Z,19.18
2019-04-29T19:21:37.806Z,19.24
2019-04-29T19:24:06.448Z,19.12
2019-04-29T19:26:35.762Z,19.04
2019-04-29T19:29:06.234Z,19.07
2019-04-29T19:31:36.838Z,18.92
2019-04-29T19:34:05.633Z,18.91
2019-04-29T19:36:35.013Z,18.73
2019-04-29T19:39:06.203Z,18.87
2019-04-29T19:41:35.555Z,18.92
2019-04-29T19:44:05.809Z,18.91
2019-04-29T19:46:38.282Z,18.96
2019-04-29T19:49:09.683Z,18.82
2019-04-29T19:51:39.297Z,18.88
2019-04-29T19:54:06.529Z,18.70
2019-04-29T19:56:36.237Z,18.69
2019-04-29T19:59:12.058Z,18.57
2019-04-29T20:01:37.877Z,18.66
2019-04-29T20:04:24.316Z,18.49
2019-04-29T20:06:58.559Z,18.50
2019-04-29T20:09:25.238Z,18.34
2019-04-29T20:11:55.846Z,18.44
2019-04-29T20:14:30.182Z,18.48
2019-04-29T20:17:17.642Z,18.46
2019-04-29T20:19:56.715Z,18.43
2019-04-29T20:22:22.354Z,18.54
2019-04-29T20:24:51.407Z,18.45
2019-04-29T20:27:20.802Z,18.29
2019-04-29T20:29:50.181Z,18.25
2019-04-29T20:32:22.377Z,18.36
2019-04-29T20:34:49.618Z,18.31
2019-04-29T20:37:19.822Z,18.29
2019-04-29T20:39:52.081Z,18.28
2019-04-29T20:42:19.663Z,18.41
2019-04-29T20:44:49.479Z,18.29
2019-04-29T20:47:23.020Z,18.35
2019-04-29T20:49:48.919Z,18.22
2019-04-29T20:52:42.925Z,18.37
2019-04-29T20:55:12.469Z,18.32
2019-04-29T20:57:41.185Z,18.34
2019-04-29T21:00:10.362Z,18.39
2019-04-29T21:02:39.355Z,18.31
2019-04-29T21:05:10.042Z,18.54
2019-04-29T21:07:39.339Z,18.18
2019-04-29T21:10:08.524Z,18.25
2019-04-29T21:13:03.038Z,18.24
2019-04-29T21:15:36.663Z,18.13
2019-04-29T21:18:05.480Z,18.18
2019-04-29T21:20:35.015Z,18.20
2019-04-29T21:23:03.899Z,18.36
2019-04-29T21:25:32.494Z,18.28
2019-04-29T21:28:02.345Z,18.24
2019-04-29T21:30:35.563Z,18.17
2019-04-29T21:33:01.571Z,18.20
2019-04-29T21:35:37.877Z,18.14
2019-04-29T21:41:25.526Z,18.20
2019-04-29T21:43:56.055Z,18.07
2019-04-29T21:46:29.133Z,18.00
2019-04-29T21:48:55.704Z,17.82
2019-04-29T21:51:25.551Z,18.04
2019-04-29T21:53:56.022Z,17.83
2019-04-29T21:56:25.835Z,17.93
2019-04-29T21:58:54.500Z,17.93
2019-04-29T22:01:25.034Z,18.00
2019-04-29T22:03:53.433Z,17.78
2019-04-29T22:06:24.787Z,17.91
2019-04-29T22:08:54.269Z,18.14
2019-04-29T22:11:22.966Z,18.13
2019-04-29T22:13:51.588Z,17.91
2019-04-29T22:16:20.112Z,17.74
2019-04-29T22:18:52.127Z,17.72
2019-04-29T22:21:22.134Z,17.70
2019-04-29T22:23:51.093Z,17.65
2019-04-29T22:26:23.224Z,17.53
2019-04-29T22:28:53.237Z,17.39
2019-04-29T22:31:21.432Z,17.68
2019-04-29T22:33:50.041Z,17.51
2019-04-29T22:36:18.545Z,17.62
2019-04-29T22:38:48.654Z,17.50
2019-04-29T22:41:26.738Z,17.52
2019-04-29T22:43:59.341Z,17.31
2019-04-29T22:46:27.938Z,17.44
2019-04-29T22:48:56.433Z,17.32
2019-04-29T22:51:25.444Z,17.46
2019-04-29T22:53:55.678Z,17.53
2019-04-29T22:56:27.565Z,17.36
2019-04-29T22:58:55.946Z,17.50
2019-04-29T23:01:25.896Z,17.55
2019-04-29T23:03:55.432Z,17.53
2019-04-29T23:06:25.865Z,17.49
2019-04-29T23:08:56.149Z,17.50
2019-04-29T23:11:24.987Z,17.40
2019-04-29T23:13:55.314Z,17.35
2019-04-29T23:16:23.862Z,17.42
2019-04-29T23:18:52.550Z,17.38
2019-04-29T23:21:50.481Z,17.36
2019-04-29T23:24:33.372Z,17.27
2019-04-29T23:27:02.027Z,17.26
2019-04-29T23:29:30.625Z,17.25
2019-04-29T23:31:59.606Z,17.28
2019-04-29T23:34:29.706Z,17.35
2019-04-29T23:36:58.207Z,17.36
2019-04-29T23:39:26.794Z,17.22
2019-04-29T23:41:55.511Z,17.38
2019-04-29T23:44:24.221Z,17.23
2019-04-29T23:46:52.808Z,17.19
2019-04-29T23:49:21.301Z,17.16
2019-04-29T23:51:49.956Z,17.20
2019-04-29T23:54:18.555Z,17.29
2019-04-29T23:57:16.346Z,17.12
